createdAt,value
2024-02-19T00:02:36.508Z,101756.19
2024-02-19T00:06:38.213Z,101764.16
2024-02-19T00:10:40.692Z,101756.41
2024-02-19T00:14:43.608Z,101748.34
2024-02-19T00:18:46.167Z,101742.03
2024-02-19T00:22:48.337Z,101730.06
2024-02-19T00:26:50.408Z,101716.09
2024-02-19T00:30:52.457Z,101716.97
2024-02-19T00:34:54.773Z,101703.66
2024-02-19T00:38:56.884Z,101712.88
2024-02-19T00:42:58.976Z,101702.03
2024-02-19T00:47:01.962Z,101710.59
2024-02-19T00:51:04.749Z,101701.84
2024-02-19T00:55:07.864Z,101702.63
2024-02-19T00:59:10.025Z,101686.81
2024-02-19T01:03:12.490Z,101665.19
2024-02-19T01:07:16.780Z,101671.19
2024-02-19T01:11:19.253Z,101652.56
2024-02-19T01:15:21.387Z,101642.41
2024-02-19T01:19:23.604Z,101636.75
2024-02-19T01:23:26.026Z,101628.00
2024-02-19T01:27:29.860Z,101637.75
2024-02-19T01:31:32.943Z,101623.81
2024-02-19T01:35:36.587Z,101614.81
2024-02-19T01:39:38.761Z,101608.41
2024-02-19T01:43:40.951Z,101599.19
2024-02-19T01:47:43.073Z,101598.00
2024-02-19T01:51:45.424Z,101574.47
2024-02-19T01:55:49.606Z,101563.19
2024-02-19T01:59:51.892Z,101535.13
2024-02-19T02:03:55.566Z,101545.84
2024-02-19T02:07:58.617Z,101532.16
2024-02-19T02:12:00.804Z,101494.00
2024-02-19T02:16:04.035Z,101517.03
2024-02-19T02:20:07.216Z,101525.66
2024-02-19T02:24:09.547Z,101513.06
2024-02-19T02:28:11.603Z,101498.13
2024-02-19T02:32:13.761Z,101517.03
2024-02-19T02:36:16.426Z,101485.00
2024-02-19T02:40:18.804Z,101508.66
2024-02-19T02:44:21.069Z,101503.59
2024-02-19T02:48:23.820Z,101497.94
2024-02-19T02:52:27.527Z,101500.19
2024-02-19T02:56:30.592Z,101478.38
2024-02-19T03:00:32.958Z,101464.44
2024-02-19T03:04:35.454Z,101456.31
2024-02-19T03:08:37.822Z,101449.31
2024-02-19T03:12:41.128Z,101434.94
2024-02-19T03:16:43.672Z,101440.97
2024-02-19T03:20:45.842Z,101443.78
2024-02-19T03:24:47.993Z,101425.94
2024-02-19T03:28:50.314Z,101413.63
2024-02-19T03:32:52.572Z,101418.84
2024-02-19T03:36:54.699Z,101392.13
2024-02-19T03:40:56.845Z,101407.31
2024-02-19T03:44:59.008Z,101403.63
2024-02-19T03:49:01.485Z,101395.81
2024-02-19T03:53:03.836Z,101384.25
2024-02-19T03:57:05.972Z,101381.84
2024-02-19T04:01:08.694Z,101383.53
2024-02-19T04:05:11.058Z,101391.25
2024-02-19T04:09:13.208Z,101375.72
2024-02-19T04:13:15.353Z,101376.72
2024-02-19T04:17:18.621Z,101380.25
2024-02-19T04:21:20.717Z,101345.75
2024-02-19T04:25:23.001Z,101323.72
2024-02-19T04:29:25.912Z,101334.25
2024-02-19T04:33:28.109Z,101326.00
2024-02-19T04:37:31.693Z,101321.78
2024-02-19T04:41:33.817Z,101280.41
2024-02-19T04:45:35.882Z,101285.56
2024-02-19T04:49:38.349Z,101273.69
2024-02-19T04:53:40.482Z,101260.72
2024-02-19T04:57:42.521Z,101284.16
2024-02-19T05:01:44.701Z,101282.28
2024-02-19T05:05:46.965Z,101290.13
2024-02-19T05:09:49.162Z,101277.19
2024-02-19T05:13:51.361Z,101285.72
2024-02-19T05:17:54.464Z,101263.56
2024-02-19T05:21:56.651Z,101275.47
2024-02-19T05:25:59.594Z,101257.19
2024-02-19T05:30:02.164Z,101255.19
2024-02-19T05:34:05.798Z,101252.63
2024-02-19T05:38:07.893Z,101223.72
2024-02-19T05:42:10.329Z,101214.84
2024-02-19T05:46:12.523Z,101216.41
2024-02-19T05:50:14.845Z,101195.66
2024-02-19T05:58:46.092Z,101189.22
2024-02-19T06:02:48.397Z,101185.22
2024-02-19T06:06:52.285Z,101174.69
2024-02-19T06:10:55.532Z,101193.13
2024-02-19T06:14:57.636Z,101198.16
2024-02-19T06:19:03.101Z,101198.31
2024-02-19T06:23:05.313Z,101210.91
2024-02-19T06:27:10.041Z,101204.44
2024-02-19T06:31:12.404Z,101205.66
2024-02-19T06:35:14.635Z,101178.19
2024-02-19T06:39:16.799Z,101179.38
2024-02-19T06:43:20.807Z,101161.94
2024-02-19T06:47:22.886Z,101148.63
2024-02-19T06:51:25.141Z,101135.59
2024-02-19T06:55:27.316Z,101116.22
2024-02-19T06:59:31.331Z,101140.06
2024-02-19T07:03:33.464Z,101135.44
2024-02-19T07:07:36.192Z,101136.31
2024-02-19T07:11:39.819Z,101106.78
2024-02-19T07:15:42.127Z,101110.88
2024-02-19T07:19:44.461Z,101106.44
2024-02-19T07:23:46.638Z,101094.66
2024-02-19T07:27:48.979Z,101120.41
2024-02-19T07:31:52.434Z,101107.06
2024-02-19T07:35:54.644Z,101098.28
2024-02-19T07:39:56.799Z,101097.84
2024-02-19T07:43:59.132Z,101071.31
2024-02-19T07:48:01.948Z,101070.81
2024-02-19T07:52:04.419Z,101072.91
2024-02-19T07:56:08.343Z,101070.53
2024-02-19T08:00:10.946Z,101065.34
2024-02-19T08:04:13.065Z,101051.63
2024-02-19T08:08:16.749Z,101049.84
2024-02-19T08:12:19.170Z,101053.59
2024-02-19T08:16:21.337Z,101037.91
2024-02-19T08:20:23.558Z,101050.16
2024-02-19T08:24:26.520Z,101033.38
2024-02-19T08:28:28.731Z,101017.13
2024-02-19T08:32:31.641Z,101038.09
2024-02-19T08:36:34.445Z,101021.06
2024-02-19T08:40:36.726Z,101017.81
2024-02-19T08:44:39.440Z,101033.97
2024-02-19T08:48:42.369Z,101036.19
2024-02-19T08:52:44.518Z,101015.88
2024-02-19T08:56:46.550Z,101024.31
2024-02-19T09:00:49.328Z,101020.97
2024-02-19T09:04:51.648Z,101013.47
2024-02-19T09:08:54.105Z,101018.34
2024-02-19T09:12:56.250Z,100995.53
2024-02-19T09:16:58.311Z,101008.53
2024-02-19T09:21:00.667Z,100984.19
2024-02-19T09:25:02.793Z,100975.03
2024-02-19T09:29:04.960Z,100981.84
2024-02-19T09:33:07.397Z,100956.03
2024-02-19T09:37:09.604Z,100973.72
2024-02-19T09:41:11.798Z,100973.22
2024-02-19T09:45:14.282Z,100970.47
2024-02-19T09:49:19.026Z,100966.91
2024-02-19T09:53:28.774Z,100963.44
2024-02-19T09:57:30.882Z,100960.00
2024-02-19T10:01:32.986Z,100940.91
2024-02-19T10:05:35.690Z,100942.75
2024-02-19T10:09:37.852Z,100930.84
2024-02-19T10:13:43.614Z,100951.03
2024-02-19T10:17:45.737Z,100930.06
2024-02-19T10:21:49.615Z,100944.91
2024-02-19T10:25:52.108Z,100928.66
2024-02-19T10:29:54.258Z,100908.44
2024-02-19T10:33:56.612Z,100907.94
2024-02-19T10:38:01.008Z,100909.00
2024-02-19T10:42:03.852Z,100905.22
2024-02-19T10:46:06.209Z,100913.16
2024-02-19T10:50:09.678Z,100889.44
2024-02-19T10:54:11.866Z,100898.16
2024-02-19T10:58:18.106Z,100880.53
2024-02-19T11:02:21.436Z,100884.44
2024-02-19T11:06:25.011Z,100879.25
2024-02-19T11:10:44.746Z,100878.88
2024-02-19T11:14:51.361Z,100867.22
2024-02-19T11:18:55.770Z,100863.38
2024-02-19T11:23:00.093Z,100855.25
2024-02-19T11:27:05.676Z,100838.94
2024-02-19T11:31:14.673Z,100831.03
2024-02-19T11:35:17.024Z,100828.38
2024-02-19T11:39:19.180Z,100842.44
2024-02-19T11:43:21.877Z,100823.91
2024-02-19T11:47:27.093Z,100815.53
2024-02-19T11:51:29.849Z,100798.63
2024-02-19T11:55:34.411Z,100793.63
2024-02-19T11:59:37.311Z,100809.75
2024-02-19T12:03:42.123Z,100802.22
2024-02-19T12:07:44.873Z,100781.28
2024-02-19T12:11:47.838Z,100777.97
2024-02-19T12:15:51.203Z,100767.31
2024-02-19T12:19:56.755Z,100755.91
2024-02-19T12:24:01.891Z,100774.47
2024-02-19T12:28:04.495Z,100752.03
2024-02-19T12:32:07.227Z,100749.22
2024-02-19T12:36:13.759Z,100724.00
2024-02-19T12:40:16.205Z,100750.59
2024-02-19T12:44:18.406Z,100740.13
2024-02-19T12:48:20.856Z,100738.41
2024-02-19T12:52:28.210Z,100734.09
2024-02-19T12:56:30.658Z,100724.53
2024-02-19T13:00:34.017Z,100707.31
2024-02-19T13:04:36.356Z,100727.09
2024-02-19T13:08:39.574Z,100719.16
2024-02-19T13:12:41.852Z,100712.75
2024-02-19T13:16:45.824Z,100693.06
2024-02-19T13:20:49.508Z,100682.00
2024-02-19T13:24:51.613Z,100675.47
2024-02-19T13:28:53.692Z,100676.03
2024-02-19T13:32:56.013Z,100663.19
2024-02-19T13:36:58.221Z,100647.47
2024-02-19T13:41:04.150Z,100684.34
2024-02-19T13:45:10.446Z,100666.31
2024-02-19T13:49:12.898Z,100655.00
2024-02-19T13:53:15.160Z,100644.44
2024-02-19T13:57:17.375Z,100653.34
2024-02-19T14:01:20.009Z,100659.84
2024-02-19T14:05:22.138Z,100666.28
2024-02-19T14:09:24.236Z,100620.59
2024-02-19T14:13:27.125Z,100634.91
2024-02-19T14:17:29.264Z,100646.25
2024-02-19T14:21:33.097Z,100621.53
2024-02-19T14:25:36.746Z,100625.03
2024-02-19T14:29:39.266Z,100635.66
2024-02-19T14:33:41.485Z,100623.69
2024-02-19T14:37:45.159Z,100621.91
2024-02-19T14:41:48.721Z,100609.78
2024-02-19T14:45:50.965Z,100587.53
2024-02-19T14:49:53.325Z,100607.66
2024-02-19T14:53:56.190Z,100596.63
2024-02-19T14:57:58.615Z,100598.13
2024-02-19T15:02:00.872Z,100595.56
2024-02-19T15:06:06.277Z,100569.97
2024-02-19T15:10:09.095Z,100576.78
2024-02-19T15:14:11.335Z,100554.03
2024-02-19T15:18:16.207Z,100572.63
2024-02-19T15:22:18.954Z,100564.63
2024-02-19T15:26:21.154Z,100553.53
2024-02-19T15:30:23.335Z,100547.78
2024-02-19T15:34:25.486Z,100543.66
2024-02-19T15:38:27.721Z,100541.91
2024-02-19T15:42:29.807Z,100549.63
2024-02-19T15:46:32.502Z,100541.78
2024-02-19T15:50:34.601Z,100537.13
2024-02-19T15:54:40.609Z,100561.47
2024-02-19T15:58:43.947Z,100546.25
2024-02-19T16:02:46.111Z,100543.59
2024-02-19T16:06:51.146Z,100526.75
2024-02-19T16:10:54.335Z,100553.13
2024-02-19T16:14:56.430Z,100542.66
2024-02-19T16:18:58.938Z,100530.06
2024-02-19T16:23:01.116Z,100522.84
2024-02-19T16:27:05.091Z,100541.38
2024-02-19T16:31:07.410Z,100541.34
2024-02-19T16:35:10.344Z,100538.59
2024-02-19T16:39:12.891Z,100544.44
2024-02-19T16:43:15.104Z,100541.34
2024-02-19T16:47:17.218Z,100535.63
2024-02-19T16:51:19.452Z,100533.59
2024-02-19T16:55:21.529Z,100523.00
2024-02-19T16:59:23.731Z,100519.09
2024-02-19T17:03:26.404Z,100523.09
2024-02-19T17:07:30.893Z,100519.00
2024-02-19T17:11:35.948Z,100517.94
2024-02-19T17:15:38.366Z,100511.22
2024-02-19T17:19:40.697Z,100510.91
2024-02-19T17:23:45.343Z,100503.59
2024-02-19T17:27:47.652Z,100512.44
2024-02-19T17:31:50.696Z,100521.09
2024-02-19T17:35:53.923Z,100519.91
2024-02-19T17:39:57.088Z,100484.34
2024-02-19T17:43:59.166Z,100499.47
2024-02-19T17:48:01.415Z,100492.28
2024-02-19T17:52:03.883Z,100512.78
2024-02-19T17:56:06.314Z,100500.44
2024-02-19T18:00:11.053Z,100494.66
2024-02-19T18:04:18.752Z,100490.44
2024-02-19T18:08:21.278Z,100484.66
2024-02-19T18:12:23.475Z,100510.50
2024-02-19T18:16:25.664Z,100495.00
2024-02-19T18:20:28.242Z,100504.59
2024-02-19T18:24:29.963Z,100498.78
2024-02-19T18:28:36.017Z,100487.47
2024-02-19T18:32:41.904Z,100484.66
2024-02-19T18:36:44.356Z,100498.53
2024-02-19T18:40:46.465Z,100499.38
2024-02-19T18:44:48.504Z,100479.84
2024-02-19T18:48:53.859Z,100488.06
2024-02-19T18:52:56.903Z,100517.28
2024-02-19T18:57:02.205Z,100501.81
2024-02-19T19:01:05.557Z,100506.75
2024-02-19T19:05:08.065Z,100504.94
2024-02-19T19:09:11.512Z,100519.78
2024-02-19T19:13:13.667Z,100519.78
2024-02-19T19:17:16.013Z,100540.19
2024-02-19T19:21:18.243Z,100531.25
2024-02-19T19:25:20.689Z,100544.91
2024-02-19T19:29:22.884Z,100532.94
2024-02-19T19:33:24.740Z,100543.09
2024-02-19T19:37:27.064Z,100530.66
2024-02-19T19:41:29.382Z,100547.69
2024-02-19T19:45:31.451Z,100534.28
2024-02-19T19:49:33.627Z,100544.41
2024-02-19T19:53:36.230Z,100545.59
2024-02-19T19:57:39.082Z,100563.22
2024-02-19T20:01:41.322Z,100559.59
2024-02-19T20:05:45.181Z,100571.06
2024-02-19T20:09:47.872Z,100572.50
2024-02-19T20:13:51.257Z,100578.25
2024-02-19T20:17:53.637Z,100581.75
2024-02-19T20:21:55.851Z,100578.00
2024-02-19T20:25:59.252Z,100588.63
2024-02-19T20:30:01.385Z,100591.50
2024-02-19T20:34:03.978Z,100602.09
2024-02-19T20:38:06.393Z,100602.84
2024-02-19T20:42:11.682Z,100598.09
2024-02-19T20:46:14.134Z,100613.91
2024-02-19T20:50:16.256Z,100615.81
2024-02-19T20:54:18.602Z,100624.63
2024-02-19T20:58:20.739Z,100619.91
2024-02-19T21:02:23.002Z,100630.28
2024-02-19T21:06:25.290Z,100629.59
2024-02-19T21:10:28.814Z,100618.56
2024-02-19T21:14:31.467Z,100619.75
2024-02-19T21:18:42.215Z,100643.56
2024-02-19T21:22:51.709Z,100643.44
2024-02-19T21:26:56.400Z,100641.25
2024-02-19T21:31:00.105Z,100638.94
2024-02-19T21:35:02.292Z,100638.59
2024-02-19T21:39:06.702Z,100636.72
2024-02-19T21:43:09.060Z,100652.19
2024-02-19T21:47:13.538Z,100654.59
2024-02-19T21:51:15.688Z,100641.94
2024-02-19T21:55:18.274Z,100638.13
2024-02-19T21:59:20.482Z,100645.88
2024-02-19T22:03:23.974Z,100650.00
2024-02-19T22:07:26.507Z,100670.03
2024-02-19T22:11:29.788Z,100650.94
2024-02-19T22:15:32.200Z,100659.31
2024-02-19T22:19:34.386Z,100661.34
2024-02-19T22:23:36.487Z,100671.72
2024-02-19T22:27:38.588Z,100670.03
2024-02-19T22:31:40.727Z,100660.50
2024-02-19T22:35:42.893Z,100659.34
2024-02-19T22:39:45.856Z,100666.50
2024-02-19T22:43:48.111Z,100678.97
2024-02-19T22:47:50.286Z,100672.16
2024-02-19T22:51:52.464Z,100688.38
2024-02-19T22:55:54.909Z,100688.59
2024-02-19T22:59:57.214Z,100687.03
2024-02-19T23:04:00.635Z,100669.22
2024-02-19T23:08:03.092Z,100692.53
2024-02-19T23:12:06.327Z,100693.81
2024-02-19T23:16:09.459Z,100691.06
2024-02-19T23:20:11.964Z,100689.50
2024-02-19T23:24:14.111Z,100682.81
2024-02-19T23:28:16.396Z,100679.66
2024-02-19T23:32:18.867Z,100677.56
2024-02-19T23:36:21.786Z,100685.59
2024-02-19T23:40:23.934Z,100689.38
2024-02-19T23:44:25.627Z,100687.16
2024-02-19T23:48:27.862Z,100686.59
2024-02-19T23:52:30.180Z,100691.69
2024-02-19T23:56:32.277Z,100687.34
